Weather at Brampton-Caledon Airport

Public forecast

Using degrees Celsius for public forecast. Weather courtesy of forecast.io.

Closest aviation weather report (METAR) to Brampton-Caledon Airport

Closest report is Toronto Lester B. Pearson International Airport, 11.7 nm (21.7 km) ESE.

2024/05/22 07:00 (retrieved 50 minutes ago)

CYYZ 220700Z 11003KT 330V120 15SM FEW075 FEW250 19/16 A2981 RMK AC1CI1 SLP093 DENSITY ALT 1400FT

Closest aviation forecast (TAF) to Brampton-Caledon Airport

Closest forecast is Toronto Lester B. Pearson International Airport, 11.7 nm (21.7 km) ESE.

2024/05/22 06:42 (retrieved 1 hour ago)

TAF CYYZ 220540Z 2206/2312 VRB03KT P6SM FEW260 BECMG 2209/2211 15007KT FM221500 19012G22KT P6SM BKN040 FM221800 22017G27KT P6SM -SHRA VCTS BKN030CB FM222300 21015G25KT P6SM -SHRA BKN030 PROB30 2223/2302 VRB20G40KT 1SM +TSRA BR BKN010 OVC030CB FM230500 28012G22KT P6SM SCT050 BKN100 FM230800 31010G20KT P6SM FEW040 RMK NXT FCST BY 220900Z